Time;durP1;ratioP1;P1;durP2;ratioP2;P2;SDS_P1;SDS_P2;PMS_P1;PMS_P2;Temp;Humidity;BMP_temperature;BMP_pressure;BME280_temperature;BME280_humidity;BME280_pressure;Samples;Min_cycle;Max_cycle;Signal;HPM_P1;HPM_P2
2023/05/25 00:01:35;;;;;;;4.00;3.20;;;;;;;21.95;74.25;99546.03;106260;1256;60575;-59
2023/05/25 00:04:02;;;;;;;4.00;3.30;;;;;;;21.95;74.84;99544.14;104575;1256;74092;-60
2023/05/25 00:06:30;;;;;;;;;;;;;;;21.93;74.64;99546.04;104419;1256;70164;-59
2023/05/25 00:08:57;;;;;;;3.20;3.00;;;;;;;21.93;75.43;99548.05;104387;1259;72941;-59
2023/05/25 00:11:25;;;;;;;6.50;3.30;;;;;;;21.82;74.34;99548.16;104376;1271;61028;-59
2023/05/25 00:13:52;;;;;;;3.70;3.40;;;;;;;21.84;73.88;99552.98;104255;1254;60562;-59
2023/05/25 00:16:19;;;;;;;7.90;3.50;;;;;;;21.85;73.27;99556.42;104357;1256;74227;-59
2023/05/25 00:18:47;;;;;;;3.50;3.00;;;;;;;21.85;73.87;99557.92;104383;1266;69519;-59
2023/05/25 00:21:14;;;;;;;3.70;3.20;;;;;;;21.85;73.88;99558.61;104215;1275;71630;-59
2023/05/25 00:23:42;;;;;;;3.10;2.80;;;;;;;21.85;73.95;99555.78;104433;1267;62063;-59
2023/05/25 00:26:09;;;;;;;8.20;3.70;;;;;;;21.82;73.60;99552.67;104337;1257;60502;-59
2023/05/25 00:28:36;;;;;;;3.50;3.10;;;;;;;21.79;74.15;99554.64;104313;1253;72676;-59
2023/05/25 00:31:04;;;;;;;4.90;2.80;;;;;;;21.80;73.51;99556.03;104321;1255;70090;-59
2023/05/25 00:33:32;;;;;;;4.50;3.20;;;;;;;21.81;73.67;99552.34;104318;1256;73437;-59
2023/05/25 00:35:59;;;;;;;4.90;3.00;;;;;;;21.74;73.88;99550.83;104236;1257;61602;-59
2023/05/25 00:38:25;;;;;;;4.70;3.40;;;;;;;21.69;74.50;99553.45;104347;1255;60773;-59
2023/05/25 00:40:56;;;;;;;3.90;3.30;;;;;;;21.66;74.55;99551.40;104335;1256;73779;-59
2023/05/25 00:43:23;;;;;;;5.70;3.20;;;;;;;21.62;74.94;99547.80;104354;1269;70181;-58
2023/05/25 00:45:52;;;;;;;6.50;3.50;;;;;;;21.58;74.79;99548.14;108460;1252;72300;-59
2023/05/25 00:48:21;;;;;;;4.30;3.50;;;;;;;21.62;75.78;99547.17;107334;1256;61567;-59
2023/05/25 00:50:48;;;;;;;3.20;3.00;;;;;;;21.59;75.65;99539.05;104818;1270;60561;-59
2023/05/25 00:53:15;;;;;;;4.00;3.10;;;;;;;21.53;76.46;99541.14;104469;1266;73495;-59
2023/05/25 00:55:55;;;;;;;4.10;3.70;;;;;;;21.46;76.41;99538.58;104508;1253;69365;-59
2023/05/25 00:58:23;;;;;;;3.60;3.30;;;;;;;21.44;76.90;99538.73;104706;1264;72881;-59
2023/05/25 01:00:50;;;;;;;3.70;3.30;;;;;;;21.43;76.54;99543.27;104440;1253;60553;-59
2023/05/25 01:03:20;;;;;;;5.80;3.60;;;;;;;21.40;75.98;99541.58;104364;1265;60444;-59
2023/05/25 01:05:49;;;;;;;4.30;4.00;;;;;;;21.34;76.84;99540.97;104305;1259;74256;-59
2023/05/25 01:08:17;;;;;;;4.80;3.60;;;;;;;21.26;77.13;99541.89;104293;1264;69485;-60
2023/05/25 01:10:47;;;;;;;3.80;3.30;;;;;;;21.26;77.08;99544.80;104222;1254;73370;-61
2023/05/25 01:13:14;;;;;;;7.70;3.60;;;;;;;21.20;77.72;99545.08;104539;1252;60802;-59
2023/05/25 01:15:41;;;;;;;6.60;2.90;;;;;;;21.18;78.51;99543.38;104338;1258;60552;-59
2023/05/25 01:18:13;;;;;;;3.70;3.20;;;;;;;21.18;78.86;99546.20;104363;1256;73503;-59
2023/05/25 01:21:11;;;;;;;3.70;2.90;;;;;;;21.17;78.90;99544.36;104298;1275;69284;-59
2023/05/25 01:23:42;;;;;;;3.70;3.00;;;;;;;21.15;79.29;99543.06;104395;1256;72438;-60
2023/05/25 01:26:12;;;;;;;5.90;3.40;;;;;;;21.11;78.55;99547.73;104331;1268;61516;-60
2023/05/25 01:28:40;;;;;;;3.90;3.10;;;;;;;21.07;78.27;99548.06;104356;1263;60528;-59
2023/05/25 01:31:08;;;;;;;3.80;3.40;;;;;;;21.04;79.36;99552.98;104330;1256;74066;-60
2023/05/25 01:33:35;;;;;;;4.70;2.70;;;;;;;21.04;79.51;99557.26;104481;1259;69832;-60
2023/05/25 01:36:03;;;;;;;3.00;2.70;;;;;;;21.05;79.73;99560.74;104311;1265;72985;-60
2023/05/25 01:38:30;;;;;;;;;;;;;;;21.04;80.19;99563.65;104356;1266;62077;-60
2023/05/25 01:40:57;;;;;;;3.30;3.00;;;;;;;21.06;82.38;99564.02;104398;1258;60630;-59
2023/05/25 01:43:26;;;;;;;4.40;3.00;;;;;;;21.01;80.19;99558.42;104290;1265;74632;-60
2023/05/25 01:45:57;;;;;;;3.00;2.60;;;;;;;20.99;79.26;99558.39;104590;1266;71127;-60
2023/05/25 01:48:24;;;;;;;3.30;3.00;;;;;;;20.97;79.37;99559.58;108367;1253;73004;-61
2023/05/25 01:51:00;;;;;;;5.30;3.30;;;;;;;20.95;79.78;99557.50;104300;1254;61563;-60
2023/05/25 01:53:47;;;;;;;3.30;3.10;;;;;;;20.92;80.28;99555.23;104375;1252;60485;-60
2023/05/25 01:56:15;;;;;;;3.20;3.00;;;;;;;20.88;80.72;99554.18;104481;1265;73637;-60
2023/05/25 01:58:42;;;;;;;3.40;3.00;;;;;;;20.81;79.60;99556.54;104278;1259;70339;-61
2023/05/25 02:01:11;;;;;;;3.90;2.90;;;;;;;20.75;80.56;99558.48;104342;1259;73129;-61
2023/05/25 02:03:39;;;;;;;3.90;3.60;;;;;;;20.74;80.69;99562.30;104241;1272;62571;-61
2023/05/25 02:06:06;;;;;;;4.70;3.70;;;;;;;20.73;80.06;99562.91;104272;1267;59354;-60
2023/05/25 02:08:34;;;;;;;4.20;3.80;;;;;;;20.71;80.03;99563.86;104425;1256;72776;-60
2023/05/25 02:11:02;;;;;;;5.20;3.60;;;;;;;20.71;80.08;99567.54;104431;1257;69838;-60
2023/05/25 02:13:29;;;;;;;;;;;;;;;20.73;80.86;99570.42;104395;1253;72829;-61
2023/05/25 02:15:56;;;;;;;4.00;3.20;;;;;;;20.72;82.57;99568.91;104179;1263;60793;-60
2023/05/25 02:18:23;;;;;;;3.60;3.30;;;;;;;20.70;80.63;99569.94;104423;1257;60524;-60
2023/05/25 02:20:53;;;;;;;4.00;3.70;;;;;;;20.69;80.77;99569.73;104254;1258;74258;-60
2023/05/25 02:23:21;;;;;;;4.10;3.50;;;;;;;20.60;81.10;99566.52;104355;1272;69138;-60
2023/05/25 02:27:52;;;;;;;4.00;3.70;;;;;;;19.79;94.44;99563.71;101512;1291;600719;-60
2023/05/25 02:30:20;;;;;;;4.90;3.50;;;;;;;20.50;86.03;99563.42;103988;1260;61646;-60
2023/05/25 02:32:49;;;;;;;4.00;3.40;;;;;;;20.48;84.88;99565.23;103905;1263;59404;-60
2023/05/25 02:35:17;;;;;;;3.80;3.50;;;;;;;20.43;85.31;99564.08;103962;1266;71962;-59
2023/05/25 02:37:44;;;;;;;3.90;3.50;;;;;;;20.45;84.86;99567.66;103957;1269;69331;-60
2023/05/25 02:40:16;;;;;;;7.60;3.90;;;;;;;20.47;85.28;99568.02;103881;1265;72894;-59
2023/05/25 02:42:43;;;;;;;6.50;4.90;;;;;;;20.45;85.99;99571.32;103720;1276;216574;-60
2023/05/25 02:45:11;;;;;;;6.80;4.10;;;;;;;20.46;86.23;99570.05;103875;1261;60130;-59
2023/05/25 02:47:40;;;;;;;5.80;4.00;;;;;;;20.48;86.77;99572.55;106059;1259;72027;-60
2023/05/25 02:50:08;;;;;;;7.10;4.20;;;;;;;20.49;86.51;99570.64;105970;1261;70954;-60
2023/05/25 02:52:40;;;;;;;5.80;4.10;;;;;;;20.50;87.23;99575.60;104385;1260;72033;-60
2023/05/25 02:55:17;;;;;;;5.20;4.60;;;;;;;20.53;87.61;99573.85;103843;1265;62377;-61
2023/05/25 02:57:46;;;;;;;4.70;3.90;;;;;;;20.60;88.67;99572.03;104075;1262;60814;-62
2023/05/25 03:00:25;;;;;;;5.40;3.60;;;;;;;20.66;88.38;99572.59;103914;1265;72863;-60
2023/05/25 03:02:53;;;;;;;6.50;4.70;;;;;;;20.72;88.26;99579.21;103865;1269;69305;-60
2023/05/25 03:05:21;;;;;;;;;;;;;;;20.78;87.67;99580.68;103997;1263;72536;-60
2023/05/25 03:07:49;;;;;;;;;;;;;;;20.86;90.40;99583.06;104077;1258;61492;-60
2023/05/25 03:10:16;;;;;;;3.70;3.30;;;;;;;20.88;91.26;99582.45;104392;1258;59820;-60
2023/05/25 03:12:44;;;;;;;4.50;4.00;;;;;;;20.92;87.76;99580.56;104413;1258;73583;-60
2023/05/25 03:15:12;;;;;;;;;;;;;;;21.00;87.18;99577.71;104439;1256;69520;-61
2023/05/25 03:17:40;;;;;;;3.60;3.30;;;;;;;21.08;88.88;99584.52;104478;1258;71830;-60
2023/05/25 03:20:09;;;;;;;4.20;3.90;;;;;;;21.09;85.67;99583.35;104377;1256;61426;-61
2023/05/25 03:22:39;;;;;;;4.70;4.10;;;;;;;21.13;84.75;99578.55;104385;1250;60254;-60
2023/05/25 03:25:08;;;;;;;4.70;4.20;;;;;;;21.18;86.07;99581.85;104475;1256;72919;-60
2023/05/25 03:27:35;;;;;;;5.10;4.20;;;;;;;21.25;85.31;99581.57;104689;1257;69212;-62
2023/05/25 03:30:04;;;;;;;4.80;4.50;;;;;;;21.31;85.88;99583.72;104500;1258;72940;-60
2023/05/25 03:32:32;;;;;;;5.50;5.00;;;;;;;21.41;86.20;99581.65;104586;1256;61415;-59
2023/05/25 03:35:01;;;;;;;5.50;4.70;;;;;;;21.50;85.79;99585.80;104330;1258;59702;-60
2023/05/25 03:37:28;;;;;;;4.80;4.40;;;;;;;21.61;86.50;99583.43;104358;1264;73223;-59
2023/05/25 03:39:56;;;;;;;;;;;;;;;21.69;85.92;99584.28;104383;1256;68317;-60
2023/05/25 03:42:24;;;;;;;;;;;;;;;21.82;86.53;99588.14;104563;1256;72902;-59
2023/05/25 03:44:51;;;;;;;;;;;;;;;21.90;86.64;99587.56;104266;1256;61403;-60
2023/05/25 03:47:19;;;;;;;3.80;3.50;;;;;;;22.01;86.90;99583.36;104391;1252;59730;-60
2023/05/25 03:49:47;;;;;;;4.30;3.90;;;;;;;22.04;84.44;99583.59;104421;1258;72953;-60
2023/05/25 03:52:15;;;;;;;6.30;4.50;;;;;;;22.14;84.15;99584.52;104400;1258;69093;-60
2023/05/25 03:54:42;;;;;;;4.60;4.30;;;;;;;22.22;83.85;99580.36;104194;1259;71585;-60
2023/05/25 03:57:10;;;;;;;5.80;4.80;;;;;;;22.29;83.42;99578.34;104415;1259;61809;-61
2023/05/25 08:25:02;;;;;;;5.10;2.60;;;;;;;31.89;38.17;99572.61;102549;1282;601008;-60
2023/05/25 08:27:30;;;;;;;2.70;2.40;;;;;;;31.92;38.14;99568.88;103681;1265;59925;-58
2023/05/25 08:30:02;;;;;;;2.50;2.30;;;;;;;31.91;37.05;99570.11;103708;1266;60706;-59
2023/05/25 08:32:30;;;;;;;3.30;2.50;;;;;;;31.78;36.19;99574.89;103646;1271;71943;-59
2023/05/25 08:34:57;;;;;;;3.00;2.50;;;;;;;31.71;36.84;99576.09;103562;1271;70095;-59
2023/05/25 08:37:25;;;;;;;6.10;2.10;;;;;;;31.67;36.33;99573.33;103762;1266;72565;-59
2023/05/25 08:39:53;;;;;;;;;;;;;;;31.59;33.02;99567.70;103681;1275;61147;-58
2023/05/25 08:42:20;;;;;;;2.90;2.50;;;;;;;31.72;34.76;99570.45;103847;1268;59844;-59
2023/05/25 08:44:48;;;;;;;2.10;1.90;;;;;;;31.88;35.63;99564.36;103774;1270;71824;-59
2023/05/25 08:47:16;;;;;;;2.80;2.00;;;;;;;32.11;34.97;99562.96;103880;1265;69088;-60
2023/05/25 08:49:44;;;;;;;3.80;2.60;;;;;;;32.23;35.02;99564.02;103947;1271;72229;-59
2023/05/25 08:52:15;;;;;;;2.80;2.60;;;;;;;32.40;34.82;99567.33;105989;1260;60857;-60
2023/05/25 08:54:43;;;;;;;2.60;2.20;;;;;;;32.67;34.08;99565.48;106050;1265;59752;-59
2023/05/25 08:57:20;;;;;;;2.80;2.40;;;;;;;32.85;33.38;99562.90;104101;1265;74223;-60
2023/05/25 09:00:00;;;;;;;3.90;2.30;;;;;;;33.01;32.47;99559.29;104081;1263;69658;-59
2023/05/25 09:02:57;;;;;;;3.80;2.10;;;;;;;33.18;32.42;99554.69;104018;1268;72764;-59
2023/05/25 09:05:25;;;;;;;4.10;2.30;;;;;;;33.31;31.79;99555.65;104043;1266;59778;-59
2023/05/25 09:07:53;;;;;;;2.90;2.20;;;;;;;33.41;32.04;99559.80;104030;1266;59804;-60
2023/05/25 09:10:21;;;;;;;2.90;2.20;;;;;;;33.43;32.08;99557.48;103881;1265;72902;-59
2023/05/25 09:12:50;;;;;;;3.20;2.00;;;;;;;33.40;31.42;99558.59;103886;1266;68485;-60
2023/05/25 09:15:18;;;;;;;5.20;2.60;;;;;;;33.31;31.55;99556.98;104009;1280;72312;-59
2023/05/25 09:17:45;;;;;;;;;;;;;;;33.23;30.29;99552.71;104085;1261;60231;-60
2023/05/25 09:20:13;;;;;;;4.40;2.20;;;;;;;33.22;30.23;99551.88;104128;1262;59944;-60
2023/05/25 09:22:41;;;;;;;;;;;;;;;33.10;30.25;99551.02;103891;1257;72818;-59
2023/05/25 09:25:09;;;;;;;3.20;2.10;;;;;;;33.11;29.92;99551.36;104360;1261;69045;-59
2023/05/25 09:27:37;;;;;;;4.20;2.20;;;;;;;33.03;30.94;99557.79;104088;1264;72363;-61
2023/05/25 09:30:05;;;;;;;3.60;2.10;;;;;;;32.95;30.89;99552.52;104463;1254;59740;-59
2023/05/25 09:32:34;;;;;;;4.60;2.20;;;;;;;32.90;30.60;99547.86;104380;1256;60046;-61
2023/05/25 09:35:09;;;;;;;2.90;2.50;;;;;;;32.84;31.02;99547.45;104287;1253;73675;-59
2023/05/25 09:37:37;;;;;;;2.80;2.60;;;;;;;32.73;31.81;99552.50;104497;1256;69221;-59
2023/05/25 09:40:06;;;;;;;2.90;2.70;;;;;;;32.55;32.62;99550.54;104420;1258;72968;-60
2023/05/25 09:42:34;;;;;;;3.00;2.70;;;;;;;32.39;32.60;99546.36;104334;1254;60220;-60
2023/05/25 09:45:02;;;;;;;3.50;2.60;;;;;;;32.22;33.17;99543.31;104519;1256;59772;-60
2023/05/25 09:47:30;;;;;;;3.10;2.60;;;;;;;32.08;32.66;99537.95;104612;1257;72680;-60
2023/05/25 09:49:59;;;;;;;3.20;2.30;;;;;;;31.94;32.40;99534.36;104570;1263;69038;-60
2023/05/25 09:52:27;;;;;;;4.40;2.50;;;;;;;31.84;32.42;99531.91;105039;1255;73495;-59
2023/05/25 09:54:55;;;;;;;3.40;2.50;;;;;;;31.76;32.07;99529.02;108104;1254;58987;-59
2023/05/25 09:57:23;;;;;;;3.00;2.30;;;;;;;31.73;31.46;99526.50;106753;1251;59749;-59
2023/05/25 09:59:51;;;;;;;2.90;2.00;;;;;;;31.79;31.39;99522.75;108353;1253;73044;-60
2023/05/25 10:02:19;;;;;;;2.10;1.80;;;;;;;31.98;31.59;99520.55;108376;1253;69189;-61
2023/05/25 10:04:47;;;;;;;;;;;;;;;32.15;31.73;99512.39;106487;1257;73022;-61
2023/05/25 10:07:15;;;;;;;2.60;2.40;;;;;;;32.29;31.71;99510.20;104664;1253;61345;-59
2023/05/25 10:09:44;;;;;;;2.70;2.20;;;;;;;32.39;31.09;99506.88;104398;1257;59897;-61
2023/05/25 10:12:14;;;;;;;2.40;2.20;;;;;;;32.46;30.47;99505.88;104553;1267;72955;-59
2023/05/25 10:14:41;;;;;;;2.40;2.00;;;;;;;32.54;30.37;99506.96;104468;1270;69063;-60
2023/05/25 10:17:09;;;;;;;2.70;2.10;;;;;;;32.58;29.37;99500.81;104722;1255;72913;-60
2023/05/25 10:19:45;;;;;;;2.30;1.90;;;;;;;32.67;30.29;99497.41;104501;1260;59847;-60
2023/05/25 10:22:35;;;;;;;2.60;1.90;;;;;;;32.80;29.08;99494.24;104475;1259;59795;-59
2023/05/25 10:25:16;;;;;;;3.40;2.00;;;;;;;32.88;28.94;99485.32;104487;1258;72774;-59
2023/05/25 10:27:53;;;;;;;4.20;2.60;;;;;;;32.85;29.15;99483.33;104481;1252;70171;-59
2023/05/25 10:30:25;;;;;;;4.40;2.40;;;;;;;32.86;28.84;99482.54;104653;1265;72320;-60
2023/05/25 10:32:56;;;;;;;2.00;1.90;;;;;;;32.94;28.49;99483.88;104552;1251;59748;-61
2023/05/25 10:35:24;;;;;;;3.20;2.30;;;;;;;32.97;26.46;99478.42;104569;1257;61728;-60
2023/05/25 10:37:52;;;;;;;;;;;;;;;33.04;27.77;99480.74;104691;1257;72098;-61
2023/05/25 10:40:21;;;;;;;2.60;1.90;;;;;;;33.18;27.95;99479.15;104662;1257;69201;-61
2023/05/25 10:42:50;;;;;;;2.40;2.20;;;;;;;33.33;28.26;99477.52;104545;1257;71495;-62
2023/05/25 10:45:18;;;;;;;3.20;2.10;;;;;;;33.52;26.70;99473.96;104442;1257;59795;-61
2023/05/25 10:47:46;;;;;;;2.80;1.80;;;;;;;33.64;27.55;99470.80;104719;1254;59660;-64
2023/05/25 10:50:34;;;;;;;2.70;2.30;;;;;;;33.64;27.48;99466.07;104299;1254;72849;-61
2023/05/25 10:53:06;;;;;;;3.30;1.80;;;;;;;33.70;27.62;99477.02;107238;1251;69434;-63
2023/05/25 10:55:52;;;;;;;2.60;2.10;;;;;;;33.74;27.66;99486.27;107812;1254;72402;-63
2023/05/25 10:58:21;;;;;;;2.70;2.10;;;;;;;33.80;27.19;99490.54;104731;1257;60183;-62
2023/05/25 11:01:02;;;;;;;4.20;3.40;;;;;;;33.82;26.48;99492.54;104863;1258;59858;-62
2023/05/25 11:03:42;;;;;;;3.60;1.80;;;;;;;33.94;27.22;99488.71;105073;1252;73209;-60
2023/05/25 11:06:14;;;;;;;3.40;2.10;;;;;;;34.00;28.40;99484.05;105612;1257;69129;-61
2023/05/25 11:08:59;;;;;;;2.20;2.00;;;;;;;33.91;28.59;99488.14;104546;1256;72586;-62
2023/05/25 11:11:44;;;;;;;2.40;2.20;;;;;;;33.74;28.72;99498.25;104465;1267;60240;-63
2023/05/25 11:14:32;;;;;;;3.00;2.10;;;;;;;33.40;29.04;99501.67;104575;1257;59754;-62
2023/05/25 11:17:18;;;;;;;2.40;2.20;;;;;;;33.06;29.45;99497.12;104576;1263;72785;-62
2023/05/25 11:19:47;;;;;;;2.30;2.00;;;;;;;32.88;29.69;99502.48;104970;1260;71163;-64
2023/05/25 11:22:39;;;;;;;2.20;2.00;;;;;;;32.85;29.67;99509.45;104793;1254;72365;-61
2023/05/25 11:25:41;;;;;;;2.30;2.10;;;;;;;32.82;29.79;99512.48;104470;1256;59944;-59
2023/05/25 11:28:10;;;;;;;2.70;2.50;;;;;;;32.59;29.70;99517.94;104441;1264;59682;-59
2023/05/25 11:30:39;;;;;;;2.40;1.90;;;;;;;32.39;29.94;99519.86;104966;1257;72773;-60
2023/05/25 11:33:07;;;;;;;2.90;2.10;;;;;;;32.25;30.44;99517.74;104501;1255;69528;-61
2023/05/25 11:35:38;;;;;;;2.20;1.90;;;;;;;32.11;30.80;99521.60;104950;1253;72916;-62
2023/05/25 11:38:06;;;;;;;2.00;1.90;;;;;;;31.98;31.26;99521.21;104503;1259;59774;-62
2023/05/25 11:40:34;;;;;;;2.40;1.70;;;;;;;31.88;31.41;99521.26;104452;1257;59725;-60
2023/05/25 11:43:05;;;;;;;2.70;2.30;;;;;;;31.75;31.66;99525.88;104610;1257;72786;-60
2023/05/25 11:45:33;;;;;;;2.20;2.10;;;;;;;31.67;31.79;99525.86;104696;1264;70032;-61
2023/05/25 11:48:03;;;;;;;2.50;2.30;;;;;;;31.53;31.89;99532.77;104470;1254;72213;-60
2023/05/25 11:50:32;;;;;;;3.90;2.40;;;;;;;31.39;32.01;99540.04;104490;1258;61377;-61
2023/05/25 11:53:03;;;;;;;7.10;2.50;;;;;;;31.33;32.43;99533.93;104332;1260;59707;-60
2023/05/25 11:55:31;;;;;;;2.60;2.40;;;;;;;31.36;32.41;99528.72;105106;1257;73233;-61
2023/05/25 11:57:58;;;;;;;;;;;;;;;31.45;32.69;99520.32;104811;1256;69344;-60
2023/05/25 12:00:27;;;;;;;4.00;1.90;;;;;;;31.57;32.34;99516.64;104730;1256;73311;-62
2023/05/25 12:02:56;;;;;;;3.10;1.90;;;;;;;31.57;32.38;99516.10;104493;1252;60172;-61
2023/05/25 12:05:24;;;;;;;4.10;2.10;;;;;;;31.63;32.74;99513.86;104640;1258;59797;-61
2023/05/25 12:07:52;;;;;;;4.70;2.10;;;;;;;31.73;32.41;99513.79;104546;1251;72997;-62
2023/05/25 12:10:20;;;;;;;2.40;2.20;;;;;;;31.82;32.72;99511.67;104686;1263;69011;-64
2023/05/25 12:12:49;;;;;;;2.50;2.00;;;;;;;31.95;32.47;99504.90;107515;1251;72460;-60
2023/05/25 12:15:21;;;;;;;2.10;1.90;;;;;;;32.03;32.57;99502.45;108347;1253;59859;-60
2023/05/25 12:17:49;;;;;;;2.00;1.80;;;;;;;32.16;32.57;99504.27;104943;1260;59796;-60
2023/05/25 12:20:17;;;;;;;2.10;1.80;;;;;;;32.29;32.41;99504.30;104497;1257;72883;-60
2023/05/25 12:22:45;;;;;;;1.90;1.70;;;;;;;32.37;31.95;99502.16;104880;1254;69772;-64
2023/05/25 12:25:14;;;;;;;1.90;1.80;;;;;;;32.40;31.80;99498.02;104794;1257;72879;-61
2023/05/25 12:27:42;;;;;;;2.50;2.30;;;;;;;32.45;32.16;99495.38;104378;1266;59920;-60
2023/05/25 12:30:10;;;;;;;2.40;2.00;;;;;;;32.53;32.17;99493.33;104480;1266;59825;-61
2023/05/25 12:32:59;;;;;;;2.30;2.10;;;;;;;32.59;31.89;99487.23;104658;1254;72799;-61
2023/05/25 12:35:31;;;;;;;4.70;2.30;;;;;;;32.73;32.16;99491.32;104824;1265;69308;-62
2023/05/25 12:38:12;;;;;;;3.10;2.20;;;;;;;32.80;32.57;99493.43;104898;1257;72313;-63
2023/05/25 12:40:41;;;;;;;5.00;1.90;;;;;;;32.90;31.90;99491.55;104392;1253;60586;-61
2023/05/25 12:43:13;;;;;;;2.30;2.10;;;;;;;32.98;31.93;99490.48;104338;1254;60629;-62
2023/05/25 12:45:41;;;;;;;4.40;2.30;;;;;;;33.06;31.74;99488.02;104569;1257;73683;-62
2023/05/25 12:48:09;;;;;;;5.70;2.20;;;;;;;33.10;31.75;99487.42;104973;1257;70077;-63
2023/05/25 12:50:37;;;;;;;2.40;2.20;;;;;;;33.16;31.57;99484.14;104600;1258;71655;-62
2023/05/25 12:53:04;;;;;;;;;;;;;;;33.22;31.24;99479.85;104448;1259;60429;-63
2023/05/25 12:55:34;;;;;;;2.10;1.80;;;;;;;33.30;31.35;99475.02;104559;1257;60981;-63
2023/05/25 12:58:04;;;;;;;3.00;2.30;;;;;;;33.27;31.16;99470.05;105924;1254;73655;-64
2023/05/25 13:00:33;;;;;;;2.90;2.10;;;;;;;33.22;31.73;99466.77;104570;1269;69113;-61
2023/05/25 13:03:01;;;;;;;3.70;2.20;;;;;;;33.31;31.69;99471.08;104640;1257;72363;-64
2023/05/25 13:05:31;;;;;;;2.50;2.30;;;;;;;33.41;31.75;99471.73;104428;1262;60548;-67
2023/05/25 13:08:00;;;;;;;4.10;2.40;;;;;;;33.47;31.06;99469.95;104933;1254;60636;-63
2023/05/25 13:10:29;;;;;;;3.00;2.50;;;;;;;33.48;31.14;99469.52;104489;1260;73635;-61
2023/05/25 13:12:58;;;;;;;4.30;2.30;;;;;;;33.61;30.79;99469.73;104260;1275;69240;-61
2023/05/25 13:15:25;;;;;;;2.60;2.30;;;;;;;33.70;31.15;99469.01;104732;1254;72527;-61
2023/05/25 13:17:53;;;;;;;;;;;;;;;33.84;31.47;99474.82;104318;1257;60470;-61
2023/05/25 13:20:23;;;;;;;3.00;1.90;;;;;;;34.02;30.92;99469.50;104500;1254;59431;-62
2023/05/25 13:22:52;;;;;;;2.00;1.80;;;;;;;34.07;30.87;99470.27;104618;1255;73813;-62
2023/05/25 13:25:20;;;;;;;2.30;2.20;;;;;;;34.16;30.82;99473.81;104338;1266;68573;-63
2023/05/25 13:27:50;;;;;;;2.30;2.10;;;;;;;34.23;30.81;99476.60;104753;1252;72906;-63
2023/05/25 13:30:20;;;;;;;2.40;2.10;;;;;;;34.33;30.60;99479.33;104898;1254;60547;-62
2023/05/25 13:32:48;;;;;;;2.50;2.10;;;;;;;34.41;30.72;99480.67;104518;1257;60546;-62
2023/05/25 13:35:22;;;;;;;5.10;2.10;;;;;;;34.44;30.08;99475.27;104580;1257;74078;-62
2023/05/25 13:37:49;;;;;;;3.00;2.10;;;;;;;34.35;29.53;99476.37;104944;1254;70036;-62
2023/05/25 13:40:18;;;;;;;2.10;2.00;;;;;;;34.27;30.09;99476.61;104792;1260;71831;-62
2023/05/25 13:42:46;;;;;;;2.80;2.10;;;;;;;34.26;30.12;99473.05;104354;1257;60568;-62
2023/05/25 13:45:13;;;;;;;;;;;;;;;34.33;30.25;99470.98;104319;1257;60545;-60
2023/05/25 13:47:42;;;;;;;2.30;2.10;;;;;;;34.39;29.76;99469.02;104377;1264;73698;-63
2023/05/25 13:50:10;;;;;;;3.10;2.30;;;;;;;34.34;30.21;99464.67;104665;1251;69121;-61
2023/05/25 13:52:38;;;;;;;;;;;;;;;34.43;30.24;99465.55;104438;1258;72856;-61
2023/05/25 13:55:06;;;;;;;4.40;2.30;;;;;;;34.50;30.22;99463.36;105980;1252;60409;-62
2023/05/25 13:57:34;;;;;;;2.90;2.20;;;;;;;34.46;30.69;99465.05;107897;1254;59733;-62
2023/05/25 14:00:01;;;;;;;5.30;2.00;;;;;;;34.50;29.85;99466.65;105224;1251;73941;-61
2023/05/25 14:02:33;;;;;;;5.20;2.20;;;;;;;34.54;29.63;99465.13;104460;1251;69060;-61
2023/05/25 14:05:01;;;;;;;3.20;2.00;;;;;;;34.56;29.12;99462.67;104509;1257;73375;-61
2023/05/25 14:07:30;;;;;;;;;;;;;;;34.54;28.86;99465.23;105032;1255;60577;-62
2023/05/25 14:09:57;;;;;;;2.20;1.80;;;;;;;34.52;28.67;99471.83;104619;1257;60821;-63
2023/05/25 14:12:26;;;;;;;2.50;1.80;;;;;;;34.50;28.67;99474.06;104335;1257;74538;-62
2023/05/25 14:14:54;;;;;;;2.30;1.80;;;;;;;34.46;28.64;99473.57;104878;1253;70335;-62
2023/05/25 14:17:23;;;;;;;8.30;2.10;;;;;;;34.42;28.70;99470.85;108316;1252;73344;-63
2023/05/25 14:19:50;;;;;;;2.30;2.00;;;;;;;34.36;28.53;99471.61;106629;1253;61032;-62
2023/05/25 14:22:18;;;;;;;5.40;2.20;;;;;;;34.34;29.35;99470.52;105128;1254;60525;-61
2023/05/25 14:24:46;;;;;;;;;;;;;;;34.46;29.29;99470.60;104661;1257;74089;-62
2023/05/25 14:27:14;;;;;;;2.10;1.90;;;;;;;34.60;29.50;99466.83;105287;1253;69149;-61
2023/05/25 14:29:43;;;;;;;3.80;2.00;;;;;;;34.64;29.47;99467.76;104854;1257;73257;-64
2023/05/25 14:32:11;;;;;;;3.40;2.20;;;;;;;34.57;29.19;99473.55;104502;1256;60803;-64
2023/05/25 14:34:39;;;;;;;;;;;;;;;34.50;29.00;99474.28;104453;1260;59871;-61
2023/05/25 14:37:07;;;;;;;1.80;1.70;;;;;;;34.50;28.68;99467.36;104356;1257;72798;-62
2023/05/25 14:39:35;;;;;;;;;;;;;;;34.47;28.88;99463.61;104287;1269;69351;-62
2023/05/25 14:44:33;;;;;;;3.30;2.30;;;;;;;33.55;30.59;99467.73;101824;1295;600758;-63
2023/05/25 14:47:01;;;;;;;3.40;2.00;;;;;;;34.38;29.27;99459.89;104039;1267;59874;-63
2023/05/25 14:49:29;;;;;;;4.20;2.00;;;;;;;34.42;28.84;99456.73;103733;1269;59693;-62
2023/05/25 14:51:56;;;;;;;;;;;;;;;34.45;29.12;99456.45;104049;1267;71933;-62
2023/05/25 14:54:24;;;;;;;2.00;1.90;;;;;;;34.76;28.88;99457.39;104047;1263;69023;-62
2023/05/25 14:56:52;;;;;;;;;;;;;;;35.02;28.35;99455.98;106897;1266;72462;-63
2023/05/25 14:59:19;;;;;;;1.70;1.60;;;;;;;35.35;28.17;99452.48;105285;1260;200172;-63
2023/05/25 15:01:47;;;;;;;2.00;1.90;;;;;;;35.68;28.25;99457.30;104150;1261;59368;-63
2023/05/25 15:04:15;;;;;;;;;;;;;;;35.85;28.22;99462.61;104801;1257;72597;-63
2023/05/25 15:06:42;;;;;;;3.10;1.70;;;;;;;35.82;27.98;99466.98;104434;1261;69121;-62
2023/05/25 15:09:12;;;;;;;2.70;1.90;;;;;;;35.98;28.09;99474.16;104301;1264;72481;-62
2023/05/25 15:11:39;;;;;;;2.90;1.90;;;;;;;36.32;28.05;99481.24;104016;1267;59895;-63
2023/05/25 15:14:07;;;;;;;2.10;1.90;;;;;;;36.60;27.87;99480.36;104027;1261;59921;-63
2023/05/25 15:16:35;;;;;;;1.90;1.70;;;;;;;36.65;27.90;99484.65;104211;1257;72821;-65
2023/05/25 15:19:03;;;;;;;2.40;1.90;;;;;;;36.58;28.42;99485.61;104040;1260;69170;-63
2023/05/25 15:21:30;;;;;;;;;;;;;;;36.47;28.38;99487.23;103944;1263;71568;-63
2023/05/25 15:23:58;;;;;;;2.60;2.10;;;;;;;36.19;28.01;99486.59;103796;1272;59870;-64
2023/05/25 15:26:26;;;;;;;2.20;2.00;;;;;;;35.87;28.91;99491.05;104686;1256;60647;-64
2023/05/25 15:28:54;;;;;;;2.00;1.90;;;;;;;35.58;29.03;99492.19;104119;1256;72900;-63
2023/05/25 15:31:22;;;;;;;1.90;1.80;;;;;;;35.27;28.91;99492.32;104546;1257;68175;-65
2023/05/25 15:33:51;;;;;;;2.60;1.70;;;;;;;34.97;29.08;99491.25;104112;1258;73390;-64
2023/05/25 15:36:25;;;;;;;2.30;1.80;;;;;;;34.51;29.47;99492.91;104326;1258;60091;-64
2023/05/25 15:38:53;;;;;;;2.00;1.80;;;;;;;34.21;29.63;99490.22;104244;1260;59939;-63
2023/05/25 15:41:20;;;;;;;3.50;1.80;;;;;;;33.85;30.05;99497.00;104800;1260;72750;-63
2023/05/25 15:43:56;;;;;;;1.70;1.60;;;;;;;33.46;30.24;99500.46;104241;1268;69072;-62
2023/05/25 15:46:24;;;;;;;2.10;1.90;;;;;;;33.10;30.76;99497.60;104412;1260;72922;-62
2023/05/25 15:48:52;;;;;;;2.20;1.90;;;;;;;32.92;31.10;99502.27;104468;1254;59720;-62
2023/05/25 15:51:20;;;;;;;3.90;1.60;;;;;;;32.78;31.15;99504.79;104833;1254;60154;-63
2023/05/25 15:53:48;;;;;;;2.40;1.70;;;;;;;32.59;31.29;99498.88;104228;1260;73710;-62
2023/05/25 15:56:16;;;;;;;;;;;;;;;32.64;31.37;99496.81;104918;1257;68322;-59
2023/05/25 15:58:47;;;;;;;2.10;1.50;;;;;;;32.74;31.25;99493.70;107669;1257;72252;-59
2023/05/25 16:01:15;;;;;;;2.30;1.80;;;;;;;32.64;31.76;99495.41;107742;1254;60177;-60
2023/05/25 16:03:43;;;;;;;2.90;1.60;;;;;;;32.70;31.65;99499.28;107790;1257;60788;-60
2023/05/25 16:06:11;;;;;;;1.90;1.40;;;;;;;32.69;31.71;99496.05;107970;1255;73678;-59
2023/05/25 16:08:41;;;;;;;4.50;1.90;;;;;;;32.62;31.76;99496.12;107723;1254;71456;-59
2023/05/25 16:11:09;;;;;;;5.60;2.30;;;;;;;32.56;31.75;99493.80;108021;1256;72954;-60
2023/05/25 16:13:36;;;;;;;2.50;1.80;;;;;;;32.52;32.05;99491.97;108064;1257;59907;-63